Time;durP1;ratioP1;P1;durP2;ratioP2;P2;SDS_P1;SDS_P2;PMS_P1;PMS_P2;Temp;Humidity;BMP_temperature;BMP_pressure;BME280_temperature;BME280_humidity;BME280_pressure;Samples;Min_cycle;Max_cycle;Signal;HPM_P1;HPM_P2
2023/09/17 00:01:05;;;;;;;13.13;9.57;;;;;;;-145.63;53.57;39372.34;5024059;28;20085;-65
2023/09/17 00:03:32;;;;;;;14.32;9.38;;;;;;;-145.63;53.00;39360.63;5026514;28;20030;-64
2023/09/17 00:05:58;;;;;;;12.63;8.90;;;;;;;-145.63;53.44;39344.97;5024397;28;20022;-66
2023/09/17 00:08:24;;;;;;;16.83;9.77;;;;;;;-145.63;53.57;39374.31;5005126;28;20105;-66
2023/09/17 00:10:50;;;;;;;12.45;8.70;;;;;;;-145.63;53.13;39313.69;5021570;28;20025;-65
2023/09/17 00:13:16;;;;;;;10.38;8.18;;;;;;;-145.63;53.41;39427.13;5025763;28;20351;-64
2023/09/17 00:15:42;;;;;;;13.00;8.88;;;;;;;-145.63;53.27;39372.34;5020280;28;20254;-65
2023/09/17 00:18:07;;;;;;;13.77;9.50;;;;;;;-145.63;53.65;39360.63;5021609;28;20172;-65
2023/09/17 00:20:33;;;;;;;12.38;8.52;;;;;;;-145.63;53.35;39389.97;5020248;28;20031;-65
2023/09/17 00:23:00;;;;;;;14.07;8.80;;;;;;;-145.63;53.09;39386.06;5024422;28;20022;-65
2023/09/17 00:25:26;;;;;;;12.13;8.80;;;;;;;-145.63;53.59;39380.19;5021278;28;20025;-65
2023/09/17 00:27:52;;;;;;;14.13;9.30;;;;;;;-145.63;53.47;39395.84;5027858;28;20038;-65
2023/09/17 00:30:18;;;;;;;12.88;8.80;;;;;;;-145.63;52.90;39380.19;5005395;28;20207;-65
2023/09/17 00:32:45;;;;;;;11.25;8.73;;;;;;;-145.63;53.21;39374.31;5025196;28;20033;-65
2023/09/17 00:35:11;;;;;;;11.65;8.32;;;;;;;-145.63;53.32;39384.09;5023959;28;20188;-65
2023/09/17 00:37:38;;;;;;;8.68;7.40;;;;;;;-145.63;53.40;39382.13;5017895;28;20023;-66
2023/09/17 00:40:11;;;;;;;13.02;8.98;;;;;;;-145.63;53.06;39344.97;5039151;28;20095;-65
2023/09/17 00:42:37;;;;;;;10.90;9.32;;;;;;;-145.63;52.98;39397.78;5021228;28;20065;-65
2023/09/17 00:45:04;;;;;;;14.88;9.05;;;;;;;-145.63;52.67;39337.16;5030749;28;20036;-66
2023/09/17 00:47:33;;;;;;;11.07;8.55;;;;;;;-145.63;52.77;39368.44;5022886;28;20144;-65
2023/09/17 00:50:01;;;;;;;12.63;8.20;;;;;;;-145.63;52.98;39454.50;5024403;28;20053;-64
2023/09/17 00:52:28;;;;;;;13.13;9.45;;;;;;;-145.63;52.94;39386.06;5022749;28;20175;-64
2023/09/17 00:54:55;;;;;;;13.02;9.20;;;;;;;-145.63;53.07;39354.75;5024707;28;20037;-64
2023/09/17 00:57:24;;;;;;;13.68;9.60;;;;;;;-145.63;53.24;39344.97;5023867;28;20021;-63
2023/09/17 00:59:50;;;;;;;12.38;8.75;;;;;;;-145.63;53.42;39368.44;5032283;28;20052;-64
2023/09/17 01:02:18;;;;;;;11.93;9.77;;;;;;;-145.63;53.48;39360.63;5031759;28;20093;-64
2023/09/17 01:04:50;;;;;;;15.32;8.93;;;;;;;-145.63;53.38;39358.66;5023774;28;20096;-64
2023/09/17 01:07:19;;;;;;;13.20;9.25;;;;;;;-145.63;53.82;39364.53;5016890;28;20033;-64
2023/09/17 01:09:45;;;;;;;16.30;9.55;;;;;;;-145.63;53.95;39403.66;5018166;28;20085;-64
2023/09/17 01:12:12;;;;;;;12.07;9.60;;;;;;;-145.63;53.33;39372.34;5024688;28;20042;-64
2023/09/17 01:14:38;;;;;;;11.18;8.57;;;;;;;-145.63;53.34;39415.38;5023809;28;20037;-65
2023/09/17 01:17:09;;;;;;;13.82;8.68;;;;;;;-145.63;53.33;39384.09;5021871;28;20030;-65
2023/09/17 01:19:36;;;;;;;13.23;9.43;;;;;;;-145.63;53.14;39343.03;5009226;28;20318;-65
2023/09/17 01:22:09;;;;;;;11.10;8.43;;;;;;;-145.63;53.06;39415.38;5038345;28;20029;-66
2023/09/17 01:24:40;;;;;;;15.20;8.32;;;;;;;-145.63;53.06;39382.13;5003728;28;20042;-64
2023/09/17 01:27:08;;;;;;;11.20;8.50;;;;;;;-145.63;53.23;39376.28;5023053;28;20041;-66
2023/09/17 01:29:39;;;;;;;11.18;7.82;;;;;;;-145.63;53.36;39362.59;5022055;28;20046;-66
2023/09/17 01:32:10;;;;;;;12.20;8.18;;;;;;;-145.63;53.19;39356.72;5021542;28;20026;-66
2023/09/17 01:34:39;;;;;;;10.45;8.02;;;;;;;-145.63;53.50;39384.09;5008868;28;20044;-65
2023/09/17 01:37:30;;;;;;;11.93;9.27;;;;;;;-145.63;53.70;39395.84;5023652;28;20022;-65
2023/09/17 01:40:10;;;;;;;13.07;9.50;;;;;;;-145.63;53.25;39438.84;5022616;28;20048;-65
2023/09/17 01:42:40;;;;;;;11.82;8.63;;;;;;;-145.63;53.61;39417.34;5023185;28;20061;-65
2023/09/17 01:45:09;;;;;;;12.27;8.05;;;;;;;-145.63;53.48;39364.53;5023135;28;20025;-66
2023/09/17 01:47:36;;;;;;;10.10;8.15;;;;;;;-145.63;53.68;39352.81;5023180;28;20026;-65
2023/09/17 01:50:04;;;;;;;10.32;7.88;;;;;;;-145.63;53.78;39370.41;5012996;28;20036;-65
2023/09/17 01:52:34;;;;;;;10.27;8.43;;;;;;;-145.63;53.13;39364.53;5031847;28;20034;-65
2023/09/17 01:55:03;;;;;;;13.60;8.90;;;;;;;-145.63;53.95;39368.44;5023199;28;20084;-65
2023/09/17 01:57:31;;;;;;;13.85;8.57;;;;;;;-145.63;53.86;39384.09;5033536;28;20029;-65
2023/09/17 01:59:57;;;;;;;12.13;8.75;;;;;;;-145.63;53.73;39378.22;5026433;28;20052;-65
2023/09/17 02:02:23;;;;;;;12.00;9.00;;;;;;;-145.63;53.19;39354.75;5030864;28;20317;-64
2023/09/17 02:04:49;;;;;;;11.60;8.82;;;;;;;-145.63;53.04;39370.41;5035733;28;20063;-65
2023/09/17 02:07:17;;;;;;;12.20;9.43;;;;;;;-145.63;53.23;39372.34;5026094;28;20332;-66
2023/09/17 02:09:44;;;;;;;12.10;9.07;;;;;;;-145.63;53.46;39348.88;5023005;28;20029;-65
2023/09/17 02:12:09;;;;;;;12.00;8.48;;;;;;;-145.63;53.54;39401.69;5025084;28;20206;-65
2023/09/17 02:14:36;;;;;;;11.20;8.43;;;;;;;-145.63;52.92;39376.28;5028642;28;20050;-66
2023/09/17 02:17:03;;;;;;;10.98;8.77;;;;;;;-145.63;53.20;39348.88;5023224;28;20037;-65
2023/09/17 02:19:29;;;;;;;11.45;9.00;;;;;;;-145.63;53.23;39384.09;5014572;28;20041;-66
2023/09/17 02:21:55;;;;;;;10.98;8.75;;;;;;;-145.63;53.30;39366.50;5017150;28;20037;-64
2023/09/17 02:24:21;;;;;;;12.40;10.20;;;;;;;-145.63;53.11;39472.09;5023248;28;20021;-65
2023/09/17 02:26:47;;;;;;;12.63;9.55;;;;;;;-145.63;53.12;39372.34;5022951;28;20046;-66
2023/09/17 02:29:13;;;;;;;12.85;9.38;;;;;;;-145.63;52.73;39380.19;5032972;28;20033;-65
2023/09/17 02:31:38;;;;;;;11.80;8.70;;;;;;;-145.63;53.02;39388.00;5040184;28;20045;-64
2023/09/17 02:34:04;;;;;;;11.20;8.80;;;;;;;-145.63;53.19;39376.28;5038208;28;20021;-65
2023/09/17 02:36:30;;;;;;;12.10;8.73;;;;;;;-145.63;53.36;39388.00;5029408;28;20029;-64
2023/09/17 02:38:56;;;;;;;9.93;8.63;;;;;;;-145.63;53.85;39380.19;5037784;28;20022;-65
2023/09/17 02:41:22;;;;;;;11.60;9.20;;;;;;;-145.63;53.99;39382.13;5034543;28;20041;-65
2023/09/17 02:43:48;;;;;;;11.75;8.60;;;;;;;-145.63;53.98;39388.00;5030276;28;20037;-65
2023/09/17 02:46:14;;;;;;;10.15;8.48;;;;;;;-145.63;53.36;39374.31;5043433;28;20052;-64
2023/09/17 02:48:40;;;;;;;12.63;8.98;;;;;;;-145.63;53.52;39376.28;5028883;28;20032;-66
2023/09/17 02:51:05;;;;;;;11.10;8.95;;;;;;;-145.63;53.79;39397.78;5028731;28;20061;-65
2023/09/17 02:53:31;;;;;;;12.38;8.57;;;;;;;-145.63;53.75;39362.59;5026763;28;20194;-64
2023/09/17 02:55:57;;;;;;;12.80;9.40;;;;;;;-145.63;53.65;39389.97;5043365;28;20317;-65
2023/09/17 02:58:23;;;;;;;14.13;8.85;;;;;;;-145.63;53.36;39403.66;5042900;28;20033;-64
2023/09/17 03:00:49;;;;;;;11.32;8.73;;;;;;;-145.63;53.18;39384.09;5037228;28;20025;-63
2023/09/17 03:03:15;;;;;;;12.80;9.13;;;;;;;-145.63;53.40;39403.66;5026053;28;20254;-64
2023/09/17 03:05:46;;;;;;;12.18;8.75;;;;;;;-145.63;52.98;39397.78;5037357;28;20309;-65
2023/09/17 03:08:12;;;;;;;13.50;8.95;;;;;;;-145.63;53.55;39388.00;5035920;28;20022;-64
2023/09/17 03:10:41;;;;;;;11.55;8.40;;;;;;;-145.63;53.33;39382.13;5028315;28;20045;-65
2023/09/17 03:13:12;;;;;;;11.65;8.98;;;;;;;-145.63;53.61;39388.00;5025681;28;20057;-64
2023/09/17 03:15:38;;;;;;;13.65;9.07;;;;;;;-145.63;53.78;39386.06;5035903;28;20036;-64
2023/09/17 03:18:04;;;;;;;12.50;8.90;;;;;;;-145.63;53.66;39368.44;5027510;28;20026;-64
2023/09/17 03:20:33;;;;;;;11.82;8.60;;;;;;;-145.63;53.46;39364.53;5025447;28;20096;-65
2023/09/17 03:23:04;;;;;;;12.63;8.43;;;;;;;-145.63;53.84;39380.19;5016531;28;20026;-65
2023/09/17 03:25:31;;;;;;;12.77;8.57;;;;;;;-145.63;53.54;39368.44;5010081;28;20021;-65
2023/09/17 03:28:00;;;;;;;12.93;8.70;;;;;;;-145.63;54.00;39393.88;5013171;28;20034;-65
2023/09/17 03:30:26;;;;;;;9.60;8.43;;;;;;;-145.63;53.60;39391.91;5022862;28;20040;-65
2023/09/17 03:32:52;;;;;;;11.15;8.32;;;;;;;-145.63;53.24;39374.31;5010489;28;20027;-64
2023/09/17 03:35:18;;;;;;;13.13;9.02;;;;;;;-145.63;53.96;39407.56;5014902;28;20033;-64
2023/09/17 03:37:45;;;;;;;11.75;9.20;;;;;;;-145.63;53.65;39327.38;5019172;28;20255;-65
2023/09/17 03:40:12;;;;;;;11.88;8.40;;;;;;;-145.63;54.07;39391.91;5006601;28;20034;-64
2023/09/17 03:42:39;;;;;;;13.40;9.65;;;;;;;-145.63;53.69;39393.88;5025573;28;20551;-65
2023/09/17 03:45:06;;;;;;;11.75;9.30;;;;;;;-145.63;53.44;39374.31;5024973;28;20033;-64
2023/09/17 03:47:32;;;;;;;10.95;7.82;;;;;;;-145.63;53.78;39389.97;5026846;28;20025;-65
2023/09/17 03:49:59;;;;;;;13.13;10.00;;;;;;;-145.63;53.64;39409.53;5017989;28;20224;-66
2023/09/17 03:52:26;;;;;;;11.07;8.43;;;;;;;-145.63;54.48;38723.09;5030412;28;20334;-65
2023/09/17 03:54:52;;;;;;;10.52;9.00;;;;;;;-145.63;53.76;39376.28;5008820;28;20097;-66
2023/09/17 03:57:18;;;;;;;10.32;8.30;;;;;;;-145.63;53.74;39370.41;5032302;28;20213;-65
2023/09/17 03:59:44;;;;;;;10.95;8.85;;;;;;;-145.63;54.11;39388.00;5025008;28;20246;-65
2023/09/17 04:02:09;;;;;;;11.60;8.98;;;;;;;-145.63;54.40;39384.09;5026004;28;20029;-64
2023/09/17 04:04:35;;;;;;;10.23;8.80;;;;;;;-145.63;54.49;39397.78;5040277;28;20092;-65
2023/09/17 04:07:02;;;;;;;10.25;8.85;;;;;;;-145.63;54.21;39378.22;5027009;28;20037;-66
2023/09/17 04:09:29;;;;;;;12.55;9.20;;;;;;;-145.63;54.01;39431.03;5024914;28;20025;-66
2023/09/17 04:11:55;;;;;;;13.65;8.68;;;;;;;-145.63;54.05;39393.88;5024387;28;20040;-66
2023/09/17 04:14:21;;;;;;;14.93;9.52;;;;;;;-145.63;54.35;39354.75;5038799;28;20033;-65
2023/09/17 04:16:47;;;;;;;13.05;9.30;;;;;;;-145.63;54.14;39384.09;5038018;28;20326;-65
2023/09/17 04:19:12;;;;;;;13.35;9.43;;;;;;;-145.63;54.22;39366.50;5021638;28;20045;-66
2023/09/17 04:21:38;;;;;;;13.55;8.90;;;;;;;-145.63;54.42;39341.06;5017143;28;20345;-65
2023/09/17 04:24:04;;;;;;;13.73;9.55;;;;;;;-145.63;54.32;39370.41;5025119;28;20211;-65
2023/09/17 04:26:30;;;;;;;11.88;9.55;;;;;;;-145.63;54.53;39384.09;5024048;28;20044;-66
2023/09/17 04:28:56;;;;;;;10.45;8.77;;;;;;;-145.63;54.46;39356.72;5027289;28;20310;-65
2023/09/17 04:31:22;;;;;;;12.70;10.25;;;;;;;-145.63;54.77;39378.22;5024222;28;20038;-65
2023/09/17 04:33:47;;;;;;;15.15;11.05;;;;;;;-145.63;54.47;39397.78;5032898;28;20202;-66
2023/09/17 04:36:13;;;;;;;16.48;11.07;;;;;;;-145.63;54.94;39356.72;5026790;28;20041;-65
2023/09/17 04:38:38;;;;;;;11.48;9.98;;;;;;;-145.63;54.90;39386.06;5030782;28;20037;-66
2023/09/17 04:41:04;;;;;;;15.32;9.98;;;;;;;-145.63;55.35;39368.44;5034970;28;20171;-67
2023/09/17 04:43:30;;;;;;;13.38;10.77;;;;;;;-145.63;55.15;39356.72;5025695;28;20033;-66
2023/09/17 04:45:57;;;;;;;14.55;10.55;;;;;;;-145.63;54.70;39370.41;5043338;28;20083;-66
2023/09/17 04:48:23;;;;;;;14.20;11.63;;;;;;;-145.63;55.17;39362.59;5015972;28;20026;-66
2023/09/17 04:50:49;;;;;;;15.20;10.52;;;;;;;-145.63;55.05;39380.19;5020068;28;20037;-66
2023/09/17 04:53:15;;;;;;;14.02;11.10;;;;;;;-145.63;55.11;39382.13;5033733;28;20030;-66
2023/09/17 04:55:40;;;;;;;17.10;10.90;;;;;;;-145.63;55.01;39384.09;5036395;28;20075;-66
2023/09/17 04:58:06;;;;;;;21.13;17.20;;;;;;;-145.63;54.76;39341.06;5023953;28;20409;-67
2023/09/17 05:00:32;;;;;;;14.60;12.70;;;;;;;-145.63;55.01;39341.06;5035857;28;20025;-67
2023/09/17 05:02:57;;;;;;;22.45;16.33;;;;;;;-145.63;54.93;39323.47;5023542;28;20033;-67
2023/09/17 05:05:23;;;;;;;24.70;18.98;;;;;;;-145.63;54.87;39337.16;5025106;28;20044;-67
2023/09/17 05:07:49;;;;;;;28.00;18.77;;;;;;;-145.63;54.52;39337.16;5032166;28;20022;-66
2023/09/17 05:10:15;;;;;;;26.95;20.33;;;;;;;-145.63;54.59;39329.34;5014755;28;20034;-66
2023/09/17 05:12:41;;;;;;;27.17;19.83;;;;;;;-145.63;54.25;39354.75;5043065;28;20036;-66
2023/09/17 05:15:07;;;;;;;21.73;17.80;;;;;;;-145.63;53.81;39364.53;5032892;28;20037;-65
2023/09/17 05:17:33;;;;;;;23.23;16.38;;;;;;;-145.63;53.81;39290.22;5032295;28;20024;-65
2023/09/17 05:19:59;;;;;;;32.40;20.23;;;;;;;-145.63;53.80;39352.81;5018243;28;20029;-65
2023/09/17 05:22:24;;;;;;;33.60;19.30;;;;;;;-145.63;53.75;39317.59;5038067;28;20075;-64
2023/09/17 05:24:50;;;;;;;32.08;19.52;;;;;;;-145.63;53.15;38803.28;5005708;28;20097;-65
2023/09/17 05:27:16;;;;;;;269.88;42.30;;;;;;;-145.63;53.65;39309.78;5022578;28;20052;-66
2023/09/17 05:29:46;;;;;;;25.60;18.38;;;;;;;-145.63;53.48;39313.69;5023119;28;20207;-64
2023/09/17 05:32:11;;;;;;;24.27;16.63;;;;;;;-145.63;53.38;39309.78;5030591;28;20093;-67
2023/09/17 05:34:37;;;;;;;28.55;16.13;;;;;;;-145.63;52.91;39309.78;5019600;28;20045;-64
2023/09/17 05:37:03;;;;;;;22.92;15.63;;;;;;;-145.63;52.78;39292.19;5031769;28;20041;-65
2023/09/17 05:39:28;;;;;;;27.00;16.27;;;;;;;-145.63;53.18;39300.00;5024529;28;20033;-66
2023/09/17 05:41:55;;;;;;;28.95;16.55;;;;;;;-145.63;52.76;39300.00;5022977;28;20021;-66
2023/09/17 05:44:20;;;;;;;20.75;15.30;;;;;;;-145.63;53.27;39270.66;5013999;28;20218;-65
2023/09/17 05:46:46;;;;;;;24.83;17.52;;;;;;;-145.63;53.27;39270.66;5018992;28;20117;-66
2023/09/17 05:49:12;;;;;;;20.83;15.35;;;;;;;-145.63;52.90;39280.44;5023319;28;20215;-66
2023/09/17 05:51:37;;;;;;;22.85;13.05;;;;;;;-145.63;52.79;39258.94;5018625;28;20029;-66
2023/09/17 05:54:03;;;;;;;26.23;16.17;;;;;;;-145.63;52.77;39266.75;5027887;28;20490;-66
2023/09/17 05:56:28;;;;;;;26.67;16.65;;;;;;;-145.63;52.81;39235.47;5030436;28;20042;-67
2023/09/17 05:58:54;;;;;;;17.25;13.32;;;;;;;-145.63;52.19;39280.44;5022768;28;20068;-66
2023/09/17 06:01:19;;;;;;;18.77;14.20;;;;;;;-145.63;51.98;39237.41;5026151;28;20038;-66
2023/09/17 06:03:45;;;;;;;19.80;12.70;;;;;;;-145.63;51.43;39253.06;5026231;28;20041;-66
2023/09/17 06:06:11;;;;;;;16.63;12.00;;;;;;;-145.63;50.96;39266.75;5026162;28;20227;-65
2023/09/17 06:08:37;;;;;;;18.45;13.52;;;;;;;-145.63;50.70;39235.47;5025606;28;20202;-64
2023/09/17 06:11:03;;;;;;;16.17;11.35;;;;;;;-145.63;50.11;39221.78;5024926;28;20032;-67
2023/09/17 06:13:29;;;;;;;14.05;11.40;;;;;;;-145.63;50.21;39210.03;5025507;28;20234;-65
2023/09/17 06:15:54;;;;;;;13.90;11.10;;;;;;;-145.63;49.36;39223.72;5026487;28;20080;-65
2023/09/17 06:18:20;;;;;;;15.00;11.38;;;;;;;-145.63;49.90;39215.91;5026764;28;20044;-67
2023/09/17 06:20:46;;;;;;;16.42;11.80;;;;;;;-145.63;49.34;39213.94;5037176;28;20040;-67
2023/09/17 06:23:12;;;;;;;13.38;10.82;;;;;;;-145.63;49.08;39239.38;5042345;28;20064;-65
2023/09/17 06:25:37;;;;;;;15.95;10.25;;;;;;;-145.63;49.61;39223.72;5043196;28;20226;-66
2023/09/17 06:28:04;;;;;;;11.68;9.93;;;;;;;-145.63;47.59;39215.91;5029453;28;20038;-67
2023/09/17 06:30:29;;;;;;;11.52;9.52;;;;;;;-145.63;48.23;39176.78;5028013;28;20040;-67
2023/09/17 06:32:55;;;;;;;16.63;9.80;;;;;;;-145.63;48.23;39327.38;5026363;28;20297;-65
2023/09/17 06:35:21;;;;;;;9.60;7.78;;;;;;;-145.63;47.12;39184.59;5025264;28;20033;-67
2023/09/17 06:37:47;;;;;;;11.85;8.48;;;;;;;-145.63;46.70;39182.66;5020825;28;20022;-66
2023/09/17 06:40:14;;;;;;;10.15;8.02;;;;;;;-145.63;46.97;39153.31;5043542;28;20030;-66
2023/09/17 06:42:40;;;;;;;13.70;7.63;;;;;;;-145.63;45.24;39133.75;5028943;28;20261;-66
2023/09/17 06:45:06;;;;;;;8.10;5.97;;;;;;;-145.63;45.44;39155.28;5034077;28;20197;-66
2023/09/17 06:47:32;;;;;;;7.90;6.15;;;;;;;-145.63;44.10;39139.63;5027106;28;20034;-65
2023/09/17 06:49:58;;;;;;;9.15;6.40;;;;;;;-145.63;43.87;39131.81;5026995;28;20337;-66
2023/09/17 06:52:23;;;;;;;6.70;5.50;;;;;;;-145.63;44.75;39118.13;5026200;28;20368;-66
2023/09/17 06:54:50;;;;;;;9.68;6.07;;;;;;;-145.63;44.04;39123.97;5034195;28;20064;-67
2023/09/17 06:57:16;;;;;;;7.10;5.45;;;;;;;-145.63;43.47;39157.22;5035092;28;20186;-65
2023/09/17 06:59:41;;;;;;;11.32;4.22;;;;;;;-145.63;42.99;39139.63;5029129;28;20025;-67
2023/09/17 07:02:07;;;;;;;6.03;5.00;;;;;;;-145.63;43.30;39094.66;5019258;28;20030;-65
2023/09/17 07:04:33;;;;;;;7.65;5.30;;;;;;;-145.63;44.36;39106.38;5011578;28;20037;-65
2023/09/17 07:07:00;;;;;;;7.45;4.65;;;;;;;-145.63;43.20;39125.94;5025857;28;20022;-66
2023/09/17 07:09:28;;;;;;;8.05;4.63;;;;;;;-145.63;43.39;39157.22;5026605;28;20060;-66
2023/09/17 07:11:54;;;;;;;7.22;4.88;;;;;;;-145.63;42.73;39122.03;5038044;28;20060;-67
2023/09/17 07:14:19;;;;;;;8.52;5.10;;;;;;;-145.63;43.25;39141.59;5040818;28;20505;-66
2023/09/17 07:16:45;;;;;;;7.93;5.30;;;;;;;-145.63;43.36;39102.47;5032187;28;20041;-66
2023/09/17 07:19:10;;;;;;;8.88;5.38;;;;;;;-145.63;43.50;39094.66;5021824;28;20026;-66
2023/09/17 07:21:36;;;;;;;7.88;5.30;;;;;;;-145.63;44.14;39075.09;5022578;28;20046;-66
2023/09/17 07:24:02;;;;;;;9.57;6.85;;;;;;;-145.63;42.16;39129.84;5011555;28;20028;-66
2023/09/17 07:26:28;;;;;;;8.70;6.22;;;;;;;-145.63;42.55;39118.13;5021399;28;20365;-65
2023/09/17 07:28:53;;;;;;;16.95;7.95;;;;;;;-145.63;42.29;39086.81;5010261;28;20034;-66
2023/09/17 07:31:19;;;;;;;13.85;7.22;;;;;;;-145.63;42.16;39088.78;5023254;28;20331;-66
2023/09/17 07:33:45;;;;;;;10.15;6.78;;;;;;;-145.63;42.08;39098.56;5014594;28;20064;-66
2023/09/17 07:36:11;;;;;;;14.35;6.38;;;;;;;-145.63;41.96;39094.66;5017013;28;20026;-67
2023/09/17 07:38:37;;;;;;;12.35;5.97;;;;;;;-145.63;41.67;39082.91;5024858;28;20041;-68
2023/09/17 07:41:02;;;;;;;7.35;5.60;;;;;;;-145.63;40.93;39082.91;5028122;28;20048;-66
2023/09/17 07:43:28;;;;;;;11.32;5.78;;;;;;;-145.63;41.35;39108.34;5038051;28;20042;-67
2023/09/17 07:45:54;;;;;;;10.18;4.13;;;;;;;-145.63;40.24;39096.59;5024728;28;20238;-66
2023/09/17 07:48:24;;;;;;;6.40;4.43;;;;;;;-145.63;40.32;39061.41;5027665;28;20060;-65
2023/09/17 07:51:00;;;;;;;9.00;4.72;;;;;;;-145.63;40.55;39086.81;5022543;28;20025;-66
2023/09/17 07:53:26;;;;;;;6.82;4.72;;;;;;;-145.63;40.28;39059.44;5025099;28;20018;-64
2023/09/17 07:55:52;;;;;;;5.80;4.35;;;;;;;-145.63;39.32;39129.84;5024779;28;20057;-67
2023/09/17 07:58:19;;;;;;;9.13;5.35;;;;;;;-145.63;40.15;39092.69;5024735;28;20029;-65
2023/09/17 08:00:45;;;;;;;8.02;5.18;;;;;;;-145.63;40.10;39053.59;5021630;28;20096;-66
2023/09/17 08:03:18;;;;;;;9.18;5.65;;;;;;;-145.63;40.22;39057.50;5023578;28;20034;-65
2023/09/17 08:05:49;;;;;;;9.70;6.55;;;;;;;-145.63;40.15;39028.16;5025453;28;20025;-64
2023/09/17 08:08:15;;;;;;;14.73;6.68;;;;;;;-145.63;39.79;39057.50;5019329;28;20077;-65
2023/09/17 08:10:41;;;;;;;9.52;6.60;;;;;;;-145.63;40.30;39073.13;5008288;28;20337;-65
2023/09/17 08:13:08;;;;;;;10.68;6.13;;;;;;;-145.63;39.59;39067.28;5023766;28;20053;-65
2023/09/17 08:15:35;;;;;;;11.50;5.38;;;;;;;-145.63;40.14;39039.88;5024341;28;20029;-65
2023/09/17 08:18:01;;;;;;;9.80;5.65;;;;;;;-145.63;39.56;39043.81;5024549;28;20053;-64
2023/09/17 08:20:27;;;;;;;9.43;6.78;;;;;;;-145.63;39.22;39026.19;5024093;28;20038;-65
2023/09/17 08:22:52;;;;;;;13.15;6.85;;;;;;;-145.63;39.30;39037.94;5023128;28;20045;-66
2023/09/17 08:25:36;;;;;;;7.50;5.97;;;;;;;-145.63;39.33;39016.44;5022764;28;20053;-65
2023/09/17 08:28:22;;;;;;;6.85;5.30;;;;;;;-145.63;39.16;39041.84;5018935;28;20036;-65
2023/09/17 08:31:08;;;;;;;9.50;5.85;;;;;;;-145.63;38.96;39028.16;5011734;28;20033;-67
2023/09/17 08:33:54;;;;;;;7.90;5.82;;;;;;;-145.63;39.12;38991.00;5016151;28;20266;-64
2023/09/17 08:36:31;;;;;;;11.00;5.82;;;;;;;-145.63;37.86;39004.69;5024372;28;20060;-66
2023/09/17 08:38:57;;;;;;;9.25;5.20;;;;;;;-145.63;37.80;38971.44;5030192;28;20186;-65
2023/09/17 08:41:22;;;;;;;6.63;4.25;;;;;;;-145.63;36.16;38944.06;5035203;28;20030;-65
2023/09/17 08:43:53;;;;;;;10.82;4.10;;;;;;;-145.63;34.81;38947.97;5021402;28;20026;-67
2023/09/17 08:46:21;;;;;;;9.13;5.03;;;;;;;-145.63;34.91;38926.47;5021224;28;20048;-66
2023/09/17 08:48:47;;;;;;;11.50;8.02;;;;;;;-145.63;34.44;38869.75;5027270;28;20022;-66
2023/09/17 08:51:15;;;;;;;7.47;5.22;;;;;;;-145.63;35.11;38891.28;5028420;28;20064;-66
2023/09/17 08:53:55;;;;;;;12.50;10.75;;;;;;;-145.63;34.74;38826.72;5023805;28;20026;-66
2023/09/17 08:56:21;;;;;;;10.43;6.63;;;;;;;-145.63;34.40;38836.50;5024855;28;20075;-67
2023/09/17 08:58:52;;;;;;;7.82;6.78;;;;;;;-145.63;34.84;38811.09;5023188;28;20109;-66
2023/09/17 09:01:21;;;;;;;7.15;5.07;;;;;;;-145.63;32.57;38736.78;5023512;28;20026;-64
2023/09/17 09:03:47;;;;;;;11.77;5.93;;;;;;;-145.63;32.98;38689.84;5022490;28;20209;-64
2023/09/17 09:06:17;;;;;;;8.73;5.82;;;;;;;-145.63;32.49;38128.69;5021814;28;20076;-64
2023/09/17 09:08:43;;;;;;;8.50;5.18;;;;;;;-145.63;32.22;38703.53;4995963;28;20044;-64
2023/09/17 09:11:09;;;;;;;7.95;4.75;;;;;;;-145.63;31.95;38672.25;5019297;28;20097;-65
2023/09/17 09:13:36;;;;;;;7.07;5.80;;;;;;;-145.63;32.68;38689.84;5016628;28;20262;-65
2023/09/17 09:16:03;;;;;;;9.05;6.85;;;;;;;-145.63;31.91;38689.84;5026515;28;20022;-66
2023/09/17 09:18:29;;;;;;;11.05;6.90;;;;;;;-145.63;31.18;38658.56;5022455;28;20101;-65
2023/09/17 09:20:55;;;;;;;6.80;5.38;;;;;;;-145.63;31.51;38664.44;5023897;28;20022;-63
2023/09/17 09:23:22;;;;;;;8.77;5.93;;;;;;;-145.63;32.38;38680.06;5022915;28;20085;-64
2023/09/17 09:25:48;;;;;;;9.82;6.00;;;;;;;-145.63;32.16;38852.16;5023673;28;20045;-63
2023/09/17 09:28:14;;;;;;;12.90;6.10;;;;;;;-145.63;33.02;38740.69;5022973;28;20461;-65
2023/09/17 09:30:43;;;;;;;14.63;9.15;;;;;;;-145.63;33.11;38789.59;5026415;28;20038;-64
2023/09/17 09:33:09;;;;;;;11.55;7.40;;;;;;;-145.63;33.89;38766.13;5029057;28;20053;-65
2023/09/17 09:35:35;;;;;;;12.35;9.00;;;;;;;-145.63;33.81;38414.16;5015962;28;20101;-64
2023/09/17 09:38:03;;;;;;;10.63;6.72;;;;;;;-145.63;34.32;38799.34;5015241;28;20281;-63
2023/09/17 09:40:34;;;;;;;12.07;6.45;;;;;;;-145.63;34.10;38861.94;5005514;28;20141;-63
2023/09/17 09:43:02;;;;;;;11.82;7.30;;;;;;;-145.63;33.99;38830.66;5036716;28;20037;-63
2023/09/17 09:45:28;;;;;;;8.20;6.47;;;;;;;-145.63;34.65;38885.41;5025257;28;20049;-64
2023/09/17 09:47:54;;;;;;;10.10;7.20;;;;;;;-145.63;34.93;38908.88;5015022;28;20389;-65
2023/09/17 09:50:25;;;;;;;12.02;6.32;;;;;;;-145.63;34.94;38883.44;5003858;28;20034;-65
2023/09/17 09:52:51;;;;;;;10.57;6.37;;;;;;;-145.63;34.28;38871.72;5027679;28;20021;-64
2023/09/17 09:55:17;;;;;;;8.25;4.97;;;;;;;-145.63;33.62;38875.63;5018521;28;20029;-66
2023/09/17 09:57:43;;;;;;;7.20;4.53;;;;;;;-145.63;33.72;38871.72;5024539;28;20060;-65
2023/09/17 10:00:16;;;;;;;7.45;5.05;;;;;;;-145.63;34.08;38883.44;5012223;28;20022;-66
2023/09/17 10:02:43;;;;;;;14.80;7.38;;;;;;;-145.63;34.40;38875.63;5022206;28;20026;-65
2023/09/17 10:05:16;;;;;;;31.83;14.57;;;;;;;-145.63;33.72;38867.81;5020209;28;20022;-65
2023/09/17 10:07:46;;;;;;;7.90;5.95;;;;;;;-145.63;32.25;38846.28;5011530;28;20038;-65
2023/09/17 10:10:12;;;;;;;8.52;6.32;;;;;;;-145.63;32.01;38893.22;5011042;28;20093;-65
2023/09/17 10:12:38;;;;;;;10.30;6.82;;;;;;;-145.63;33.04;38885.41;5011501;28;20045;-66
2023/09/17 10:15:05;;;;;;;10.38;5.82;;;;;;;-145.63;33.00;38875.63;5016169;28;20254;-65
2023/09/17 10:17:35;;;;;;;7.07;5.80;;;;;;;-145.63;32.73;38904.97;5023321;28;20286;-64
2023/09/17 10:20:06;;;;;;;7.50;5.53;;;;;;;-145.63;32.39;38912.78;5034200;28;20053;-67
2023/09/17 10:22:36;;;;;;;9.25;5.78;;;;;;;-145.63;32.75;38879.53;5038807;28;20025;-67
2023/09/17 10:25:08;;;;;;;10.82;6.68;;;;;;;-145.63;32.50;38895.19;5004738;28;20037;-66
2023/09/17 10:27:36;;;;;;;11.85;5.60;;;;;;;-145.63;32.71;38893.22;5017744;28;20057;-67
2023/09/17 10:30:03;;;;;;;8.45;6.30;;;;;;;-145.63;33.37;38820.88;5022592;28;20315;-65
2023/09/17 10:32:34;;;;;;;8.63;6.00;;;;;;;-145.63;32.98;38930.38;5023168;28;20234;-65
2023/09/17 10:35:02;;;;;;;7.60;5.22;;;;;;;-145.63;33.75;38889.31;5014131;28;20290;-67
2023/09/17 10:37:31;;;;;;;8.50;5.82;;;;;;;-145.63;33.42;38871.72;5039136;28;20052;-67
2023/09/17 10:39:58;;;;;;;7.88;6.30;;;;;;;-145.63;33.21;38787.63;5021097;28;20030;-66
2023/09/17 10:42:25;;;;;;;7.88;5.68;;;;;;;-145.63;34.12;38844.34;5021516;28;20085;-64
2023/09/17 10:44:55;;;;;;;10.50;6.05;;;;;;;-145.63;33.91;38854.13;5006533;28;20038;-65
2023/09/17 10:47:22;;;;;;;8.38;6.55;;;;;;;-145.63;33.73;38918.66;5022896;28;20151;-65
2023/09/17 10:49:49;;;;;;;9.23;6.50;;;;;;;-145.63;33.87;38879.53;5033744;28;20360;-65
2023/09/17 10:52:15;;;;;;;7.95;6.85;;;;;;;-145.63;33.85;38899.09;5026525;28;20257;-64
2023/09/17 10:54:40;;;;;;;10.25;6.75;;;;;;;-145.63;33.49;38867.81;5033911;28;20053;-65
2023/09/17 10:57:17;;;;;;;9.32;7.03;;;;;;;-145.63;32.62;38906.91;5032513;28;20029;-64
2023/09/17 10:59:44;;;;;;;10.52;5.70;;;;;;;-145.63;33.38;38914.72;5025249;28;20026;-64
2023/09/17 11:02:12;;;;;;;8.02;5.60;;;;;;;-145.63;32.48;38883.44;5025896;28;20365;-65
2023/09/17 11:04:39;;;;;;;10.75;6.50;;;;;;;-145.63;33.04;38871.72;5027386;28;20041;-65
2023/09/17 11:07:07;;;;;;;8.00;5.55;;;;;;;-145.63;32.64;38842.38;5025765;28;20026;-65
2023/09/17 11:09:33;;;;;;;15.38;7.05;;;;;;;-145.63;32.68;38885.41;5011562;28;20030;-65